Time;durP1;ratioP1;P1;durP2;ratioP2;P2;SDS_P1;SDS_P2;PMS_P1;PMS_P2;Temp;Humidity;BMP_temperature;BMP_pressure;BME280_temperature;BME280_humidity;BME280_pressure;Samples;Min_cycle;Max_cycle;Signal;HPM_P1;HPM_P2
2022/05/29 00:01:12;;;;;;;7.15;2.67;;;;;;;13.68;89.29;98824.59;1729578;83;20976;-79
2022/05/29 00:03:38;;;;;;;4.95;2.37;;;;;;;13.61;88.78;98831.84;1729955;82;21011;-79
2022/05/29 00:06:05;;;;;;;4.33;2.47;;;;;;;13.60;88.95;98838.43;1729770;82;21245;-79
2022/05/29 00:08:35;;;;;;;3.80;2.33;;;;;;;13.59;88.46;98835.41;1729367;83;21043;-79
2022/05/29 00:11:02;;;;;;;5.62;2.37;;;;;;;13.56;87.95;98827.72;1729917;82;21586;-80
2022/05/29 00:13:29;;;;;;;10.75;2.47;;;;;;;13.53;87.66;98828.70;1732413;82;20994;-80
2022/05/29 00:15:56;;;;;;;8.80;2.70;;;;;;;13.50;87.37;98820.98;1730237;82;21035;-79
2022/05/29 00:18:23;;;;;;;4.42;2.42;;;;;;;13.45;87.45;98819.87;1731146;83;21007;-79
2022/05/29 00:20:54;;;;;;;3.92;2.42;;;;;;;13.42;87.25;98813.46;1730717;82;21007;-79
2022/05/29 00:23:22;;;;;;;7.75;2.70;;;;;;;13.42;87.64;98806.09;1709052;83;22072;-79
2022/05/29 00:25:52;;;;;;;4.00;2.47;;;;;;;13.44;87.98;98802.95;1730774;82;21077;-81
2022/05/29 00:28:19;;;;;;;5.30;2.90;;;;;;;13.45;88.10;98803.34;1730642;82;21007;-80
2022/05/29 00:30:46;;;;;;;5.37;2.85;;;;;;;13.43;87.28;98810.38;1731384;82;21038;-81
2022/05/29 00:33:14;;;;;;;7.35;2.83;;;;;;;13.37;86.89;98806.72;1727455;83;21038;-79
2022/05/29 00:35:42;;;;;;;5.53;3.25;;;;;;;13.32;86.96;98806.45;1731382;82;20999;-79
2022/05/29 00:38:12;;;;;;;5.22;2.52;;;;;;;13.29;87.33;98796.16;1728844;82;21054;-80
2022/05/29 00:40:48;;;;;;;6.22;2.47;;;;;;;13.21;87.08;98795.59;1731312;82;21030;-78
2022/05/29 00:43:15;;;;;;;5.83;2.60;;;;;;;13.17;87.29;98797.06;1729908;82;21008;-80
2022/05/29 00:46:01;;;;;;;5.97;2.42;;;;;;;13.12;86.64;98794.65;1731305;83;20967;-79
2022/05/29 00:48:28;;;;;;;6.55;2.50;;;;;;;13.10;87.16;98784.73;1708054;82;21034;-80
2022/05/29 00:51:00;;;;;;;4.65;2.60;;;;;;;13.09;87.24;98783.02;1705055;83;21001;-80
2022/05/29 00:53:28;;;;;;;5.92;2.80;;;;;;;13.10;87.51;98776.44;1689272;84;20997;-80
2022/05/29 00:56:02;;;;;;;4.30;2.47;;;;;;;13.13;87.68;98774.17;1690044;84;21351;-80
2022/05/29 00:58:29;;;;;;;4.40;2.40;;;;;;;13.15;87.94;98777.58;1694252;84;21061;-79
2022/05/29 01:00:57;;;;;;;9.40;2.45;;;;;;;13.19;88.45;98771.31;1692274;84;21025;-78
2022/05/29 01:03:25;;;;;;;7.12;2.52;;;;;;;13.25;88.65;98771.06;1699535;83;21006;-79
2022/05/29 01:05:51;;;;;;;5.50;2.60;;;;;;;13.29;88.39;98780.49;1695930;83;21037;-77
2022/05/29 01:08:23;;;;;;;3.60;2.30;;;;;;;13.35;88.65;98771.56;1698858;83;20982;-78
2022/05/29 01:11:13;;;;;;;5.62;2.58;;;;;;;13.40;88.62;98770.05;1699363;83;21081;-79
2022/05/29 01:14:16;;;;;;;5.33;2.70;;;;;;;13.47;88.80;98778.04;1713664;81;21005;-79
2022/05/29 01:17:13;;;;;;;5.33;2.42;;;;;;;13.54;88.83;98775.55;1683100;83;21548;-79
2022/05/29 01:20:04;;;;;;;3.80;2.35;;;;;;;13.59;88.62;98777.52;1693949;83;21048;-80
2022/05/29 01:23:09;;;;;;;3.87;2.17;;;;;;;13.62;88.02;98783.89;1702743;84;21064;-79
2022/05/29 01:26:08;;;;;;;5.83;2.40;;;;;;;13.61;88.22;98776.99;1682253;84;21021;-79
2022/05/29 01:29:06;;;;;;;6.85;2.60;;;;;;;13.69;88.40;98778.81;1683249;84;20998;-79
2022/05/29 01:31:54;;;;;;;4.15;2.58;;;;;;;13.78;88.12;98780.64;1698311;83;20989;-78
2022/05/29 01:34:31;;;;;;;8.43;2.58;;;;;;;13.86;88.00;98774.62;1700506;84;21053;-80
2022/05/29 01:37:26;;;;;;;4.47;2.30;;;;;;;13.88;87.63;98768.87;1686800;84;21513;-79
2022/05/29 01:40:16;;;;;;;6.20;2.50;;;;;;;13.91;87.70;98771.36;1698430;84;21058;-79
2022/05/29 01:43:12;;;;;;;4.12;2.33;;;;;;;13.91;87.70;98770.05;1666371;84;21005;-80
2022/05/29 01:45:53;;;;;;;4.28;2.20;;;;;;;13.87;86.97;98766.72;1688267;84;21537;-79
2022/05/29 01:48:28;;;;;;;4.10;2.42;;;;;;;13.76;86.65;98755.03;1695427;84;21010;-79
2022/05/29 01:50:59;;;;;;;5.53;2.98;;;;;;;13.67;86.86;98760.22;1721429;82;21047;-79
2022/05/29 01:53:34;;;;;;;4.92;2.72;;;;;;;13.60;85.93;98758.30;1729174;82;21027;-79
2022/05/29 01:56:15;;;;;;;4.62;2.40;;;;;;;13.46;86.32;98758.88;1704735;83;21523;-79
2022/05/29 01:58:47;;;;;;;7.03;2.35;;;;;;;13.39;85.65;98761.81;1726027;83;20972;-79
2022/05/29 02:01:16;;;;;;;6.90;2.55;;;;;;;13.25;85.70;98763.66;1729912;81;21031;-79
2022/05/29 02:03:47;;;;;;;7.72;2.67;;;;;;;13.07;85.95;98760.04;1730939;83;21471;-79
2022/05/29 02:07:47;;;;;;;6.87;2.30;;;;;;;13.03;86.56;98761.95;1730398;82;21602;-79
2022/05/29 02:09:04;;;;;;;6.53;2.67;;;;;;;13.01;86.48;98774.64;1724855;83;21066;-79
2022/05/29 02:11:31;;;;;;;3.58;2.17;;;;;;;12.99;87.00;98773.42;1698753;83;21066;-79
2022/05/29 02:14:06;;;;;;;3.77;2.30;;;;;;;13.01;86.68;98767.69;1729859;83;21551;-80
2022/05/29 02:16:38;;;;;;;7.00;2.70;;;;;;;12.99;87.24;98772.13;1730609;82;21020;-78
2022/05/29 02:19:28;;;;;;;3.62;2.02;;;;;;;12.96;86.98;98763.56;1722236;83;21022;-80
2022/05/29 02:21:59;;;;;;;5.20;2.72;;;;;;;12.92;86.88;98770.19;1730831;82;21000;-78
2022/05/29 02:24:37;;;;;;;7.35;2.47;;;;;;;12.98;87.10;98773.48;1730536;82;21011;-79
2022/05/29 02:27:46;;;;;;;3.70;1.80;;;;;;;12.99;86.95;98781.69;1731105;82;21026;-79
2022/05/29 02:30:14;;;;;;;8.08;2.30;;;;;;;13.01;87.57;98772.03;1721150;83;21507;-79
2022/05/29 02:33:04;;;;;;;2.92;1.95;;;;;;;13.05;87.38;98769.69;1695025;84;21010;-79
2022/05/29 02:36:29;;;;;;;6.65;2.25;;;;;;;13.11;87.44;98774.66;1718732;83;21034;-79
2022/05/29 02:38:40;;;;;;;3.90;2.22;;;;;;;13.21;87.58;98770.80;1720308;83;21018;-79
2022/05/29 02:41:18;;;;;;;4.75;2.00;;;;;;;13.23;87.07;98772.02;1730142;82;21050;-79
2022/05/29 02:44:06;;;;;;;7.72;2.52;;;;;;;13.28;87.03;98778.75;1730541;82;21026;-79
2022/05/29 02:46:55;;;;;;;4.65;2.40;;;;;;;13.26;86.58;98774.52;1731431;83;20966;-80
2022/05/29 02:49:36;;;;;;;4.83;2.10;;;;;;;13.26;87.01;98780.58;1729638;82;21044;-78
2022/05/29 02:52:08;;;;;;;5.45;2.40;;;;;;;13.22;86.08;98783.38;1720310;83;20986;-79
2022/05/29 02:54:36;;;;;;;9.25;2.22;;;;;;;13.18;86.13;98782.65;1722272;83;21062;-78
2022/05/29 02:57:03;;;;;;;6.08;2.30;;;;;;;13.14;85.84;98780.61;1722479;83;21083;-80
2022/05/29 02:59:47;;;;;;;8.90;2.40;;;;;;;13.11;85.58;98785.98;1724392;83;21036;-80
2022/05/29 03:02:31;;;;;;;9.15;2.58;;;;;;;13.08;84.74;98780.86;1724533;83;21026;-81
2022/05/29 03:05:28;;;;;;;5.95;2.58;;;;;;;12.95;83.97;98775.73;1723413;82;21575;-78
2022/05/29 03:08:21;;;;;;;6.45;2.25;;;;;;;12.84;83.67;98781.85;1722653;83;21047;-80
2022/05/29 03:11:02;;;;;;;7.62;2.02;;;;;;;12.78;83.36;98784.24;1721489;82;21547;-79
2022/05/29 03:13:53;;;;;;;4.35;2.20;;;;;;;12.71;83.55;98784.08;1706157;83;20996;-79
2022/05/29 03:16:42;;;;;;;6.03;2.30;;;;;;;12.67;83.69;98784.67;1722214;83;21015;-79
2022/05/29 03:19:30;;;;;;;5.25;2.27;;;;;;;12.66;83.85;98783.42;1701201;83;20996;-80
2022/05/29 03:22:23;;;;;;;6.97;2.12;;;;;;;12.61;83.50;98781.43;1704624;83;21053;-79
2022/05/29 03:25:04;;;;;;;3.60;1.85;;;;;;;12.58;83.86;98781.10;1715940;83;21077;-78
2022/05/29 03:27:41;;;;;;;5.50;2.15;;;;;;;12.57;84.04;98772.03;1695155;84;21088;-78
2022/05/29 03:30:21;;;;;;;4.42;2.10;;;;;;;12.59;84.25;98772.81;1699317;84;21042;-78
2022/05/29 03:32:56;;;;;;;3.95;2.00;;;;;;;12.65;84.69;98766.93;1699430;84;21090;-79
2022/05/29 03:35:31;;;;;;;3.92;2.20;;;;;;;12.69;84.66;98775.45;1679784;84;21047;-79
2022/05/29 03:37:59;;;;;;;5.12;2.00;;;;;;;12.70;84.70;98761.52;1696786;84;20984;-79
2022/05/29 03:40:29;;;;;;;5.87;2.30;;;;;;;12.73;84.06;98766.17;1699137;84;21039;-80
2022/05/29 03:42:57;;;;;;;6.53;2.40;;;;;;;12.72;84.19;98779.27;1699210;84;21058;-79
2022/05/29 03:45:24;;;;;;;9.08;2.50;;;;;;;12.69;83.48;98777.63;1699292;84;21039;-80
2022/05/29 03:47:51;;;;;;;5.95;2.10;;;;;;;12.71;83.33;98782.77;1699253;84;21019;-79
2022/05/29 03:50:21;;;;;;;3.67;2.08;;;;;;;12.67;83.15;98783.37;1690941;84;21015;-79
2022/05/29 03:52:48;;;;;;;6.55;2.25;;;;;;;12.63;82.84;98775.70;1684395;85;21575;-79
2022/05/29 03:55:17;;;;;;;5.53;1.75;;;;;;;12.49;83.18;98777.09;1680579;84;21059;-80
2022/05/29 03:57:43;;;;;;;4.20;2.35;;;;;;;12.45;83.21;98779.39;1684424;84;21022;-79
2022/05/29 04:00:13;;;;;;;4.10;1.90;;;;;;;12.39;83.83;98773.11;1678639;85;21511;-79
2022/05/29 04:02:40;;;;;;;4.08;1.95;;;;;;;12.42;83.92;98776.08;1688815;84;21063;-78
2022/05/29 04:05:11;;;;;;;5.37;2.37;;;;;;;12.32;84.55;98764.69;1680579;85;21528;-79
2022/05/29 04:13:11;;;;;;;5.67;2.65;;;;;;;12.39;84.51;98760.08;1683005;84;20991;-80
2022/05/29 04:15:45;;;;;;;4.17;2.17;;;;;;;12.45;84.33;98761.61;1683609;85;21079;-79
2022/05/29 04:18:07;;;;;;;8.10;2.27;;;;;;;12.52;84.22;98761.78;1679070;84;21083;-79
2022/05/29 04:20:34;;;;;;;4.28;2.20;;;;;;;12.60;83.95;98766.25;1683406;85;21566;-79
2022/05/29 04:23:01;;;;;;;3.77;2.00;;;;;;;12.69;83.87;98767.20;1679368;85;20988;-78
2022/05/29 04:25:28;;;;;;;6.25;2.22;;;;;;;12.81;83.78;98762.39;1685203;85;21597;-79
2022/05/29 04:27:54;;;;;;;5.95;2.30;;;;;;;12.85;83.70;98758.32;1678722;84;21023;-79
2022/05/29 04:30:21;;;;;;;5.70;2.10;;;;;;;12.90;83.31;98735.48;1683952;85;21094;-79
2022/05/29 04:33:00;;;;;;;5.37;2.20;;;;;;;13.03;83.02;98724.11;1691001;84;21566;-79
2022/05/29 04:35:37;;;;;;;4.85;2.15;;;;;;;13.05;82.69;98722.72;1681776;85;20995;-79
2022/05/29 04:38:04;;;;;;;9.35;2.30;;;;;;;13.12;82.58;98734.62;1675805;85;21035;-79
2022/05/29 04:40:31;;;;;;;6.10;1.98;;;;;;;13.20;82.45;98751.27;1683918;84;21583;-79
2022/05/29 04:42:58;;;;;;;7.08;2.77;;;;;;;13.29;82.02;98752.17;1683370;85;21070;-79
2022/05/29 04:45:26;;;;;;;4.17;1.90;;;;;;;13.35;81.87;98744.15;1682296;84;20980;-79
2022/05/29 04:47:53;;;;;;;3.00;1.90;;;;;;;13.41;81.26;98750.84;1682701;85;21051;-79
2022/05/29 04:50:19;;;;;;;3.87;2.27;;;;;;;13.38;80.63;98740.55;1683598;84;21578;-78
2022/05/29 04:52:46;;;;;;;4.83;1.95;;;;;;;13.39;80.68;98743.11;1682227;85;20992;-79
2022/05/29 04:55:13;;;;;;;4.25;1.65;;;;;;;13.45;80.27;98739.36;1681131;84;20968;-80
2022/05/29 04:57:40;;;;;;;4.22;1.98;;;;;;;13.53;80.38;98740.75;1684109;85;21027;-79
2022/05/29 05:00:08;;;;;;;5.50;2.00;;;;;;;13.61;80.38;98744.34;1680374;84;21000;-78
2022/05/29 05:02:35;;;;;;;6.90;1.92;;;;;;;13.65;80.37;98730.23;1684921;85;21523;-83
2022/05/29 05:05:01;;;;;;;2.83;1.87;;;;;;;13.69;79.77;98735.71;1690024;84;21020;-80
2022/05/29 05:07:28;;;;;;;3.90;2.20;;;;;;;13.76;79.87;98742.81;1682244;84;21031;-79
2022/05/29 05:09:55;;;;;;;3.42;2.15;;;;;;;13.85;79.79;98735.05;1678442;85;21614;-80
2022/05/29 05:12:22;;;;;;;3.72;2.12;;;;;;;13.99;79.47;98738.36;1681343;84;21011;-80
2022/05/29 05:14:48;;;;;;;5.30;2.02;;;;;;;14.12;78.83;98733.81;1679348;84;21080;-82
2022/05/29 05:17:15;;;;;;;4.80;1.87;;;;;;;14.22;78.90;98732.07;1680013;84;21035;-82
2022/05/29 05:19:42;;;;;;;5.87;2.17;;;;;;;14.27;77.91;98733.56;1649538;85;21538;-79
2022/05/29 05:22:08;;;;;;;4.72;2.00;;;;;;;14.33;77.42;98742.42;1685227;85;21000;-79
2022/05/29 05:24:37;;;;;;;5.97;2.50;;;;;;;14.42;77.93;98743.76;1681518;84;21377;-79
2022/05/29 05:27:07;;;;;;;6.28;2.30;;;;;;;14.49;77.65;98739.11;1683442;85;21036;-80
2022/05/29 05:29:34;;;;;;;4.75;2.00;;;;;;;14.51;76.89;98732.88;1686801;85;20984;-79
2022/05/29 05:32:01;;;;;;;9.45;2.20;;;;;;;14.61;77.60;98732.48;1682467;85;21087;-80
2022/05/29 05:34:28;;;;;;;4.87;2.30;;;;;;;14.68;76.92;98733.44;1685727;85;21561;-79
2022/05/29 05:36:56;;;;;;;6.08;1.90;;;;;;;14.77;76.65;98733.45;1680792;85;21044;-78
2022/05/29 05:39:23;;;;;;;5.75;2.10;;;;;;;14.82;76.75;98734.09;1683185;85;21016;-79
2022/05/29 05:41:50;;;;;;;7.55;2.22;;;;;;;14.90;76.12;98736.30;1689480;84;21075;-79
2022/05/29 05:44:17;;;;;;;7.37;2.25;;;;;;;14.95;75.56;98736.11;1685541;85;21003;-79
2022/05/29 05:46:48;;;;;;;8.35;2.50;;;;;;;15.12;75.84;98736.13;1682812;84;21487;-79
2022/05/29 05:49:21;;;;;;;4.05;2.42;;;;;;;15.22;74.66;98731.26;1683792;84;21026;-79
2022/05/29 05:51:48;;;;;;;6.85;2.40;;;;;;;15.19;74.13;98729.65;1695521;84;21031;-79
2022/05/29 05:54:15;;;;;;;9.35;3.00;;;;;;;15.22;75.00;98736.05;1692078;84;21047;-79
2022/05/29 05:56:49;;;;;;;9.08;2.87;;;;;;;15.24;74.23;98737.27;1693842;84;21047;-80
2022/05/29 05:59:16;;;;;;;5.20;2.77;;;;;;;15.26;75.05;98727.13;1694395;84;21027;-80
2022/05/29 06:01:44;;;;;;;5.35;2.70;;;;;;;15.30;74.59;98718.19;1696245;84;21056;-81
2022/05/29 06:04:11;;;;;;;4.75;2.70;;;;;;;15.36;74.40;98718.34;1690470;84;21056;-80
2022/05/29 06:06:37;;;;;;;9.13;2.70;;;;;;;15.44;73.84;98724.03;1673558;85;21134;-80
2022/05/29 06:09:04;;;;;;;5.37;2.35;;;;;;;15.51;74.16;98725.87;1680094;84;21558;-83
2022/05/29 06:11:33;;;;;;;6.87;2.45;;;;;;;15.52;73.60;98732.81;1683826;84;21004;-81
2022/05/29 06:14:00;;;;;;;4.20;2.52;;;;;;;15.58;73.52;98733.81;1685971;84;21044;-79
2022/05/29 06:16:26;;;;;;;6.17;2.52;;;;;;;15.65;73.44;98723.38;1686654;84;21075;-79
2022/05/29 06:18:53;;;;;;;6.12;3.00;;;;;;;15.68;71.98;98721.08;1684864;84;21051;-79
2022/05/29 06:21:19;;;;;;;4.78;3.05;;;;;;;15.70;73.00;98715.30;1688774;84;21031;-78
2022/05/29 06:23:46;;;;;;;6.78;2.98;;;;;;;15.71;71.35;98725.67;1691245;84;21103;-79
2022/05/29 06:26:13;;;;;;;6.80;2.55;;;;;;;15.74;71.60;98731.28;1685788;84;21058;-80
2022/05/29 06:28:41;;;;;;;5.12;2.08;;;;;;;15.83;71.08;98727.31;1684434;84;21051;-79
2022/05/29 06:31:11;;;;;;;4.42;2.20;;;;;;;15.94;71.20;98715.81;1689605;84;21019;-79
2022/05/29 06:33:38;;;;;;;5.65;2.22;;;;;;;16.06;71.73;98713.00;1696691;84;21076;-79
2022/05/29 06:36:18;;;;;;;4.12;2.25;;;;;;;16.13;71.49;98703.02;1693813;84;20988;-79
2022/05/29 06:38:46;;;;;;;5.95;2.60;;;;;;;16.22;71.05;98706.47;1677138;84;21079;-78
2022/05/29 06:41:16;;;;;;;5.55;2.45;;;;;;;16.27;70.75;98700.05;1693796;84;20997;-78
2022/05/29 06:43:43;;;;;;;9.45;3.08;;;;;;;16.19;70.06;98700.06;1696871;84;21119;-79
2022/05/29 06:46:11;;;;;;;5.87;2.67;;;;;;;16.28;69.97;98700.88;1693393;84;20959;-79
2022/05/29 06:48:40;;;;;;;4.92;3.12;;;;;;;16.29;70.24;98701.25;1696501;84;21794;-79
2022/05/29 06:51:16;;;;;;;6.85;3.50;;;;;;;16.41;70.68;98709.78;1691082;84;22333;-79
2022/05/29 06:53:42;;;;;;;8.95;3.42;;;;;;;16.52;70.76;98705.23;1683706;85;21524;-79
2022/05/29 06:56:10;;;;;;;6.40;3.58;;;;;;;16.46;70.58;98697.23;1687331;84;21099;-78
2022/05/29 06:58:36;;;;;;;7.92;3.30;;;;;;;16.41;70.81;98700.59;1704119;84;21010;-79
2022/05/29 07:06:59;;;;;;;4.47;3.00;;;;;;;16.56;70.65;98692.80;1730831;82;21626;-79
2022/05/29 07:09:36;;;;;;;7.65;3.50;;;;;;;16.56;69.88;98687.55;1728819;83;21050;-79
2022/05/29 07:12:13;;;;;;;6.50;3.70;;;;;;;16.55;70.04;98688.47;1730825;82;21055;-78
2022/05/29 07:14:45;;;;;;;9.45;3.55;;;;;;;16.50;70.86;98688.27;1724190;83;21120;-78
2022/05/29 07:17:11;;;;;;;5.58;3.25;;;;;;;16.61;70.35;98689.43;1716590;82;21039;-80
2022/05/29 07:19:41;;;;;;;6.03;3.00;;;;;;;16.66;70.90;98693.97;1731669;82;21042;-78
2022/05/29 07:22:08;;;;;;;4.55;2.65;;;;;;;16.68;71.07;98698.66;1730986;82;21136;-78
2022/05/29 07:24:36;;;;;;;6.05;3.30;;;;;;;16.68;69.75;98703.44;1727769;83;21035;-79
2022/05/29 07:27:03;;;;;;;4.40;2.80;;;;;;;16.75;70.04;98695.22;1731822;83;21010;-79
2022/05/29 07:29:30;;;;;;;6.53;3.27;;;;;;;16.69;67.96;98689.84;1730861;83;20982;-80
2022/05/29 07:31:57;;;;;;;6.37;3.00;;;;;;;16.78;69.24;98690.64;1732517;83;20971;-79
2022/05/29 07:34:24;;;;;;;5.67;3.00;;;;;;;16.87;68.86;98690.16;1731880;81;22086;-80
2022/05/29 07:36:52;;;;;;;6.10;3.10;;;;;;;16.79;68.40;98690.17;1731243;83;21014;-80
2022/05/29 07:39:20;;;;;;;4.20;2.83;;;;;;;16.85;68.73;98695.97;1729910;82;21019;-79
2022/05/29 07:44:32;;;;;;;8.38;3.50;;;;;;;17.09;67.41;98694.18;1729991;82;20964;-79
2022/05/29 07:46:59;;;;;;;8.28;3.37;;;;;;;17.27;67.54;98690.94;1733570;83;21070;-80
2022/05/29 07:49:25;;;;;;;8.13;3.10;;;;;;;17.33;66.94;98691.89;1732718;82;21062;-81
2022/05/29 07:51:52;;;;;;;5.65;2.98;;;;;;;17.33;66.44;98684.01;1732681;83;21086;-80
2022/05/29 07:54:20;;;;;;;5.70;3.17;;;;;;;17.47;67.09;98674.83;1731145;82;20976;-79
2022/05/29 07:56:47;;;;;;;10.85;3.47;;;;;;;17.57;66.80;98674.28;1730666;83;21039;-80
2022/05/29 07:59:16;;;;;;;9.80;3.30;;;;;;;17.63;66.54;98662.92;1730841;82;21455;-78
2022/05/29 08:01:42;;;;;;;11.53;3.50;;;;;;;17.64;65.50;98657.19;1727395;82;21048;-80
2022/05/29 08:04:09;;;;;;;5.60;3.20;;;;;;;17.65;64.85;98666.30;1731464;82;20960;-79
2022/05/29 08:06:36;;;;;;;5.95;3.20;;;;;;;17.76;65.25;98678.77;1729965;83;21078;-79
2022/05/29 08:09:03;;;;;;;6.85;3.02;;;;;;;17.88;65.27;98689.87;1730112;83;21529;-79
2022/05/29 08:11:29;;;;;;;5.55;3.37;;;;;;;18.05;64.70;98688.85;1730142;82;21074;-79
2022/05/29 08:13:56;;;;;;;5.92;2.90;;;;;;;18.06;63.42;98701.53;1729792;83;21034;-78
2022/05/29 08:16:23;;;;;;;5.35;3.05;;;;;;;18.13;63.00;98689.69;1731018;82;20995;-78
2022/05/29 08:18:49;;;;;;;6.62;3.00;;;;;;;18.34;63.22;98697.17;1731903;83;21027;-78
2022/05/29 08:21:16;;;;;;;6.60;3.12;;;;;;;18.37;64.49;98699.14;1732177;82;21071;-79
2022/05/29 08:30:37;;;;;;;6.75;3.37;;;;;;;18.67;63.90;98708.66;1732200;83;21002;-79
2022/05/29 08:31:28;;;;;;;7.78;3.20;;;;;;;18.99;62.29;98713.64;1729704;82;21026;-79
2022/05/29 08:33:55;;;;;;;4.03;2.50;;;;;;;19.07;62.53;98723.20;1730037;83;21064;-80
2022/05/29 08:36:25;;;;;;;9.38;3.17;;;;;;;19.11;61.37;98723.84;1730326;82;21027;-78
2022/05/29 08:38:56;;;;;;;7.22;3.02;;;;;;;19.18;61.92;98736.97;1732339;83;21571;-78
2022/05/29 08:41:40;;;;;;;6.58;3.17;;;;;;;19.10;61.33;98737.95;1731745;82;21000;-79
2022/05/29 08:44:21;;;;;;;5.72;3.00;;;;;;;18.90;58.98;98741.89;1729952;82;21067;-78
2022/05/29 08:46:52;;;;;;;6.33;3.12;;;;;;;18.82;60.51;98740.62;1730114;82;21035;-78
2022/05/29 08:49:24;;;;;;;5.67;2.87;;;;;;;18.71;60.35;98738.27;1730078;82;21063;-78
2022/05/29 08:52:25;;;;;;;6.33;2.85;;;;;;;18.65;61.08;98740.81;1730302;82;21016;-78
2022/05/29 08:55:09;;;;;;;5.20;2.83;;;;;;;18.47;60.75;98742.83;1700598;82;21056;-78
2022/05/29 08:58:16;;;;;;;7.97;3.12;;;;;;;18.31;61.42;98721.90;1730852;82;21598;-79
2022/05/29 09:00:49;;;;;;;6.35;2.70;;;;;;;18.11;61.22;98720.99;1731087;83;21000;-80
2022/05/29 09:03:47;;;;;;;5.40;3.02;;;;;;;17.82;61.98;98714.37;1731667;82;20996;-78
2022/05/29 09:06:29;;;;;;;6.15;3.17;;;;;;;17.66;64.08;98715.29;1731806;83;21063;-80
2022/05/29 09:09:16;;;;;;;7.80;3.07;;;;;;;17.50;64.30;98703.53;1729890;82;21011;-79
2022/05/29 09:12:09;;;;;;;6.80;3.60;;;;;;;17.37;65.91;98693.40;1732268;82;21023;-79
2022/05/29 09:14:53;;;;;;;7.78;3.60;;;;;;;17.22;66.65;98689.87;1727149;82;20970;-79
2022/05/29 09:17:29;;;;;;;10.00;3.27;;;;;;;17.09;66.52;98690.24;1732400;83;22244;-79
2022/05/29 09:20:22;;;;;;;9.53;4.17;;;;;;;16.98;66.63;98679.03;1730838;82;21184;-79
2022/05/29 09:22:49;;;;;;;8.93;4.08;;;;;;;16.77;67.84;98679.78;1732016;83;21004;-79
2022/05/29 09:25:35;;;;;;;8.98;3.98;;;;;;;16.66;68.71;98685.62;1729767;82;21011;-79
2022/05/29 09:28:06;;;;;;;8.78;4.12;;;;;;;16.57;69.53;98680.05;1730463;82;20979;-79
2022/05/29 09:30:34;;;;;;;7.25;4.28;;;;;;;16.45;70.37;98682.44;1729663;82;20975;-79
2022/05/29 09:33:27;;;;;;;11.28;4.80;;;;;;;16.40;72.55;98661.33;1730234;82;21563;-80
2022/05/29 09:36:19;;;;;;;13.68;5.47;;;;;;;16.34;73.33;98634.13;1731775;83;20979;-78
2022/05/29 09:39:02;;;;;;;7.20;4.30;;;;;;;16.22;73.31;98642.21;1731424;82;21039;-80
2022/05/29 09:41:35;;;;;;;;;;;;;;;16.23;72.64;98680.60;1734472;83;21007;-80
2022/05/29 09:44:10;;;;;;;9.20;3.75;;;;;;;16.12;74.73;98709.21;1731718;83;20131;-80
2022/05/29 09:46:41;;;;;;;5.50;3.10;;;;;;;16.10;73.82;98697.02;1731576;83;21034;-80
2022/05/29 09:49:49;;;;;;;8.80;3.67;;;;;;;16.14;73.40;98699.48;1731549;83;21023;-80
2022/05/29 09:52:40;;;;;;;8.23;3.35;;;;;;;16.08;73.48;98707.21;1730703;82;21053;-81
2022/05/29 09:55:31;;;;;;;8.83;3.37;;;;;;;16.06;73.98;98734.82;1730024;82;21057;-80
2022/05/29 09:58:09;;;;;;;5.67;3.20;;;;;;;15.97;74.46;98732.67;1730116;82;21049;-80
2022/05/29 10:00:39;;;;;;;7.17;3.33;;;;;;;15.95;73.19;98713.55;1729879;82;21029;-79
2022/05/29 10:03:10;;;;;;;6.03;3.60;;;;;;;15.90;74.77;98701.17;1725106;82;21032;-81
2022/05/29 10:05:42;;;;;;;5.62;3.35;;;;;;;15.93;74.58;98685.73;1729951;83;21618;-81
2022/05/29 10:08:30;;;;;;;6.70;3.58;;;;;;;15.93;74.90;98682.64;1729976;83;21150;-80
2022/05/29 10:11:14;;;;;;;9.45;3.50;;;;;;;15.95;75.98;98683.88;1729872;82;21031;-80
2022/05/29 10:13:42;;;;;;;7.87;3.50;;;;;;;15.93;74.89;98677.88;1730215;82;21519;-80
2022/05/29 10:16:12;;;;;;;7.15;3.77;;;;;;;15.90;76.65;98686.28;1729990;82;21062;-81
2022/05/29 10:18:42;;;;;;;10.20;3.87;;;;;;;16.01;76.08;98709.77;1730015;82;21538;-80
2022/05/29 10:21:22;;;;;;;7.95;3.50;;;;;;;16.10;75.54;98732.41;1729974;82;21020;-80
2022/05/29 10:23:53;;;;;;;12.60;3.40;;;;;;;16.16;75.09;98734.34;1730013;82;21082;-80
2022/05/29 10:26:32;;;;;;;10.08;4.22;;;;;;;16.19;75.50;98731.06;1729660;82;21011;-80
2022/05/29 10:29:02;;;;;;;5.37;3.42;;;;;;;16.24;75.24;98725.11;1730009;83;21011;-79
2022/05/29 10:31:38;;;;;;;7.15;3.60;;;;;;;16.27;75.05;98722.78;1717221;83;21146;-80
2022/05/29 10:34:22;;;;;;;7.78;3.55;;;;;;;16.35;74.86;98723.20;1730179;82;20992;-79
2022/05/29 10:36:49;;;;;;;10.32;4.05;;;;;;;16.41;75.02;98734.70;1730287;82;21508;-80
2022/05/29 10:39:29;;;;;;;8.10;3.52;;;;;;;16.47;75.27;98735.67;1730216;82;21039;-80
2022/05/29 10:41:58;;;;;;;7.83;4.20;;;;;;;16.57;74.35;98739.09;1730238;82;20968;-79
2022/05/29 10:44:51;;;;;;;11.45;4.08;;;;;;;16.63;76.15;98742.68;1729935;82;21012;-79
2022/05/29 10:47:29;;;;;;;9.73;4.47;;;;;;;16.66;74.89;98734.18;1730491;82;21027;-78
2022/05/29 10:50:10;;;;;;;10.40;4.92;;;;;;;16.64;75.34;98733.41;1741892;82;21044;-78
2022/05/29 10:53:12;;;;;;;7.58;4.33;;;;;;;16.67;75.84;98737.64;1725579;82;21008;-79
2022/05/29 10:56:03;;;;;;;9.73;4.33;;;;;;;16.72;75.11;98743.49;1722177;83;21127;-78
2022/05/29 10:58:53;;;;;;;7.37;4.53;;;;;;;16.73;75.55;98735.14;1722538;82;21016;-78
2022/05/29 11:04:47;;;;;;;8.63;4.10;;;;;;;16.63;75.56;98713.81;1722468;83;20994;-79
2022/05/29 11:07:49;;;;;;;8.73;4.35;;;;;;;16.60;76.83;98712.69;1722199;83;21060;-78
2022/05/29 11:10:30;;;;;;;7.40;4.40;;;;;;;16.61;77.28;98699.48;1721714;83;21059;-79
2022/05/29 11:13:29;;;;;;;7.78;4.60;;;;;;;16.57;76.39;98693.16;1703534;83;21031;-79
2022/05/29 11:16:21;;;;;;;7.00;3.77;;;;;;;16.43;78.54;98686.06;1708380;83;21110;-79
2022/05/29 11:19:23;;;;;;;7.53;3.90;;;;;;;16.41;79.13;98682.23;1704613;83;20972;-79
2022/05/29 11:22:22;;;;;;;7.58;4.08;;;;;;;16.33;77.82;98686.20;1708586;83;21032;-80
2022/05/29 11:25:12;;;;;;;9.03;4.08;;;;;;;16.30;78.97;98674.94;1715668;83;21000;-79
2022/05/29 11:28:07;;;;;;;7.37;4.00;;;;;;;16.27;79.25;98680.38;1704029;83;21083;-78
2022/05/29 11:31:15;;;;;;;8.40;4.22;;;;;;;16.24;78.59;98681.00;1719655;83;21008;-79
2022/05/29 11:34:14;;;;;;;7.15;3.98;;;;;;;16.22;78.24;98679.77;1709542;83;21046;-79
2022/05/29 11:37:04;;;;;;;7.33;3.80;;;;;;;16.14;79.08;98678.50;1715456;83;21504;-79
2022/05/29 11:40:02;;;;;;;7.58;3.90;;;;;;;16.14;78.18;98653.12;1722266;82;21501;-79
2022/05/29 11:42:55;;;;;;;8.33;4.37;;;;;;;16.05;79.06;98648.37;1721215;83;21028;-79
2022/05/29 11:51:06;;;;;;;11.12;4.15;;;;;;;16.05;79.31;98665.41;1722272;83;21018;-79
2022/05/29 11:51:15;;;;;;;8.63;5.15;;;;;;;16.16;79.87;98666.16;1722031;83;21020;-78
2022/05/29 11:53:52;;;;;;;7.53;3.47;;;;;;;16.15;79.55;98653.48;1729242;83;21550;-79
2022/05/29 11:56:32;;;;;;;6.75;3.22;;;;;;;16.03;78.84;98637.95;1725906;82;21043;-79
2022/05/29 11:59:13;;;;;;;7.83;3.75;;;;;;;15.96;78.55;98630.53;1700681;83;21047;-79
2022/05/29 12:01:45;;;;;;;7.78;3.85;;;;;;;15.82;79.04;98636.05;1725657;82;21052;-77
2022/05/29 12:04:19;;;;;;;13.38;4.10;;;;;;;15.83;78.70;98661.79;1729596;83;21000;-78
2022/05/29 12:07:10;;;;;;;7.15;3.95;;;;;;;15.77;79.24;98667.36;1726629;82;21043;-78
2022/05/29 12:09:51;;;;;;;6.30;3.80;;;;;;;15.71;78.64;98658.85;1728960;82;21054;-78
2022/05/29 12:12:32;;;;;;;7.33;4.20;;;;;;;15.64;78.90;98666.67;1727044;82;21067;-78
2022/05/29 12:15:02;;;;;;;8.85;3.65;;;;;;;15.56;80.51;98653.13;1725543;82;21016;-79
2022/05/29 12:17:44;;;;;;;7.92;3.80;;;;;;;15.50;81.53;98615.47;1724793;82;20984;-79
2022/05/29 12:20:24;;;;;;;7.03;4.40;;;;;;;15.49;80.96;98615.08;1730495;83;21555;-79
2022/05/29 12:23:05;;;;;;;9.45;4.90;;;;;;;15.49;80.20;98603.28;1726532;82;21007;-79
2022/05/29 12:25:51;;;;;;;7.20;4.10;;;;;;;15.49;81.47;98609.83;1729219;83;20992;-79
2022/05/29 12:29:01;;;;;;;7.55;4.12;;;;;;;15.49;81.71;98619.00;1729993;82;20998;-78
2022/05/29 12:31:40;;;;;;;9.55;4.25;;;;;;;15.53;81.71;98649.34;1701694;84;20988;-78
2022/05/29 12:34:16;;;;;;;8.00;3.80;;;;;;;15.55;81.03;98640.94;1733241;82;20987;-77
2022/05/29 12:37:12;;;;;;;7.90;4.42;;;;;;;15.56;81.23;98635.23;1738716;82;21019;-79
2022/05/29 12:39:47;;;;;;;8.53;4.28;;;;;;;15.63;81.44;98632.69;1731103;82;20984;-78